MUHA/HAV METAR and TAF weather

Enter ICAO airport designator
Station Type Date Time Source
MUHA METAR 2021/02/27 02:55 UTC NOAA

MUHA 270255Z 10006KT 060V120 9000 SCT040 24/20 Q1019


Station Type Date Time Source
MUHA Decoded METAR 2021/02/27 02:55 UTC NOAA

Aeropuerto Jose Marti, Rancho-Boyeros, Habana, Cuba (MUHA) 22-59N 082-24W 75M
Feb 26, 2021 - 09:55 PM EST / 2021.02.27 0255 UTC
Wind: from the E (100 degrees) at 7 MPH (6 KT) (direction variable):0
Visibility: 5 mile(s):0
Sky conditions: partly cloudy
Temperature: 75 F (24 C)
Dew Point: 68 F (20 C)
Relative Humidity: 78%
Pressure (altimeter): 30.09 in. Hg (1019 hPa)
ob: MUHA 270255Z 10006KT 060V120 9000 SCT040 24/20 Q1019
cycle: 3

Station Type Date Time Source
MUHA TAF 2021/02/26 18:03 UTC NOAA

TAF MUHA 261700Z 2618/2718 10010KT 9000 SCT025
BECMG 2702/2704 VRB03KT
BECMG 2712/2714 14011KT

Example: see airport list